Time;durP1;ratioP1;P1;durP2;ratioP2;P2;SDS_P1;SDS_P2;PMS_P1;PMS_P2;Temp;Humidity;BMP_temperature;BMP_pressure;BME280_temperature;BME280_humidity;BME280_pressure;Samples;Min_cycle;Max_cycle;Signal;HPM_P1;HPM_P2
2023/08/12 00:00:29;;;;;;;2.00;1.80;;;;;;;20.45;91.99;101686.31;5059157;22;21143;-87
2023/08/12 00:02:55;;;;;;;1.98;1.73;;;;;;;20.41;92.37;101687.41;5035645;28;20025;-88
2023/08/12 00:05:23;;;;;;;1.60;1.50;;;;;;;20.43;93.23;101685.56;5034485;28;20374;-88
2023/08/12 00:07:48;;;;;;;1.77;1.67;;;;;;;20.42;92.87;101686.47;5035385;28;20055;-88
2023/08/12 00:10:14;;;;;;;1.40;1.30;;;;;;;20.39;93.04;101690.06;5034717;28;20029;-88
2023/08/12 00:12:40;;;;;;;1.45;1.35;;;;;;;20.36;93.85;101685.81;5034624;28;20033;-88
2023/08/12 00:15:14;;;;;;;1.75;1.65;;;;;;;20.35;93.56;101684.09;5034565;28;20104;-87
2023/08/12 00:17:41;;;;;;;1.98;1.88;;;;;;;20.32;93.42;101684.22;5034569;28;20037;-87
2023/08/12 00:20:08;;;;;;;1.65;1.55;;;;;;;20.36;93.23;101679.69;5034985;28;20067;-87
2023/08/12 00:22:34;;;;;;;1.70;1.60;;;;;;;20.34;93.37;101681.53;5035066;28;20037;-88
2023/08/12 00:25:00;;;;;;;2.50;1.75;;;;;;;20.36;94.86;101671.78;5033859;28;20166;-87
2023/08/12 00:27:25;;;;;;;1.42;1.33;;;;;;;20.30;94.03;101661.50;5034528;28;20104;-89
2023/08/12 00:29:50;;;;;;;2.17;1.80;;;;;;;20.30;94.52;101656.22;5034810;28;20511;-89
2023/08/12 00:32:16;;;;;;;1.80;1.70;;;;;;;20.32;94.10;101668.41;5035005;28;20541;-88
2023/08/12 00:34:42;;;;;;;1.70;1.60;;;;;;;20.32;95.29;101659.66;5035301;28;20021;-88
2023/08/12 00:39:32;;;;;;;1.42;1.33;;;;;;;20.19;96.00;101641.72;5060182;23;20056;-88
2023/08/12 00:41:57;;;;;;;1.47;1.37;;;;;;;20.15;95.26;101628.75;5054754;28;20044;-89
2023/08/12 00:44:23;;;;;;;1.43;1.33;;;;;;;20.18;95.03;101636.53;5053893;28;20128;-89
2023/08/12 00:46:49;;;;;;;1.70;1.60;;;;;;;20.23;94.85;101645.09;5053922;28;20032;-89
2023/08/12 00:49:15;;;;;;;1.67;1.58;;;;;;;20.22;95.29;101646.00;5054163;28;20560;-89
2023/08/12 00:51:41;;;;;;;;;;;;;;;20.24;95.23;101640.69;5055199;28;20393;-89
2023/08/12 00:54:08;;;;;;;;;;;;;;;20.25;95.04;101645.88;5054599;28;19913;-89
2023/08/12 00:56:34;;;;;;;2.00;1.85;;;;;;;20.21;95.09;101639.00;5053692;28;19917;-90
2023/08/12 00:59:00;;;;;;;1.92;1.83;;;;;;;20.22;95.14;101635.47;5054262;28;20107;-89
2023/08/12 01:01:35;;;;;;;1.80;1.70;;;;;;;20.13;94.92;101622.69;5046681;28;20075;-88
2023/08/12 01:04:01;;;;;;;1.70;1.60;;;;;;;20.17;94.79;101624.28;5054102;28;20021;-89
2023/08/12 01:06:27;;;;;;;2.10;1.90;;;;;;;20.24;94.94;101635.41;5054365;28;20040;-90
2023/08/12 01:08:53;;;;;;;2.10;1.90;;;;;;;20.25;94.80;101634.50;5054137;28;20489;-89
2023/08/12 01:11:34;;;;;;;1.90;1.80;;;;;;;20.26;95.10;101634.41;5054120;28;20024;-89
2023/08/12 01:14:06;;;;;;;2.03;1.80;;;;;;;20.27;95.16;101622.06;5054978;28;20757;-90
2023/08/12 01:16:36;;;;;;;2.08;1.98;;;;;;;20.25;94.89;101618.69;5054449;28;20025;-90
2023/08/12 01:19:21;;;;;;;1.90;1.80;;;;;;;20.23;95.77;101612.59;5053814;28;20453;-89
2023/08/12 01:21:49;;;;;;;1.80;1.70;;;;;;;20.14;95.85;101590.16;5054050;28;20035;-90
2023/08/12 01:24:14;;;;;;;1.92;1.80;;;;;;;20.24;95.64;101612.53;5053625;28;20028;-89
2023/08/12 01:26:40;;;;;;;2.07;1.90;;;;;;;20.17;95.44;101597.91;5054264;28;20112;-90
2023/08/12 01:29:05;;;;;;;1.80;1.70;;;;;;;20.21;95.91;101605.63;5053520;28;20036;-90
2023/08/12 01:31:55;;;;;;;1.60;1.50;;;;;;;20.15;96.52;101589.22;5054022;28;20035;-89
2023/08/12 01:34:44;;;;;;;1.83;1.73;;;;;;;20.15;96.50;101591.84;5053384;28;20036;-89
2023/08/12 01:37:18;;;;;;;2.53;2.00;;;;;;;20.08;96.34;101588.63;5052204;28;20120;-89
2023/08/12 01:39:46;;;;;;;1.70;1.60;;;;;;;20.15;97.73;101590.06;5054244;28;20091;-89
2023/08/12 01:42:12;;;;;;;2.08;1.80;;;;;;;20.14;97.20;101590.16;5053474;28;20072;-89
2023/08/12 01:44:38;;;;;;;1.80;1.70;;;;;;;20.13;97.01;101589.31;5053035;28;20025;-89
2023/08/12 01:47:03;;;;;;;1.83;1.73;;;;;;;20.13;96.57;101588.44;5053362;28;20025;-88
2023/08/12 01:49:28;;;;;;;2.10;1.90;;;;;;;20.11;96.73;101588.50;5053771;28;20044;-89
2023/08/12 01:51:54;;;;;;;1.73;1.63;;;;;;;20.11;96.87;101587.63;5054009;28;20373;-90
2023/08/12 01:54:21;;;;;;;1.80;1.70;;;;;;;20.13;96.73;101588.44;5066113;28;20051;-90
2023/08/12 01:56:47;;;;;;;2.20;2.00;;;;;;;20.08;96.86;101569.34;5059263;28;20032;-89
2023/08/12 01:59:15;;;;;;;2.03;1.80;;;;;;;20.09;97.61;101571.06;5053783;28;20025;-89
2023/08/12 02:01:41;;;;;;;2.10;1.80;;;;;;;20.10;97.83;101578.88;5053598;28;20032;-89
2023/08/12 02:04:06;;;;;;;1.70;1.60;;;;;;;20.10;97.83;101578.03;5053914;28;20025;-89
2023/08/12 02:06:32;;;;;;;1.90;1.80;;;;;;;20.09;97.58;101571.91;5054381;28;20024;-90
2023/08/12 02:08:57;;;;;;;1.87;1.77;;;;;;;20.06;97.70;101578.16;5053363;28;20425;-89
2023/08/12 02:11:22;;;;;;;2.03;1.83;;;;;;;20.09;97.51;101574.53;5053670;28;20033;-89
2023/08/12 02:13:48;;;;;;;1.60;1.50;;;;;;;20.08;99.14;101564.91;5053143;28;20025;-89
2023/08/12 02:16:13;;;;;;;1.70;1.60;;;;;;;20.07;98.40;101573.75;5054069;28;20017;-89
2023/08/12 02:18:38;;;;;;;1.70;1.60;;;;;;;20.03;98.02;101573.03;5054446;28;20346;-89
2023/08/12 02:21:04;;;;;;;1.60;1.50;;;;;;;20.06;98.73;101561.50;5053529;28;20100;-90
2023/08/12 02:26:17;;;;;;;2.05;1.90;;;;;;;20.00;98.44;101559.13;5053549;28;20036;-90
2023/08/12 02:28:43;;;;;;;1.63;1.53;;;;;;;20.03;98.32;101556.38;5053360;28;20465;-90
2023/08/12 02:31:08;;;;;;;1.60;1.50;;;;;;;20.00;98.14;101559.97;5053437;28;20035;-89
2023/08/12 02:33:33;;;;;;;2.57;2.13;;;;;;;19.94;100.00;101535.69;5053476;28;20075;-89
2023/08/12 02:35:59;;;;;;;2.47;2.00;;;;;;;19.95;100.00;101540.03;5053300;28;20025;-90
2023/08/12 02:38:24;;;;;;;1.90;1.80;;;;;;;19.92;100.00;101542.81;5053602;28;20033;-89
2023/08/12 02:40:50;;;;;;;2.13;1.80;;;;;;;19.94;99.95;101546.22;5053335;28;20021;-89
2023/08/12 02:43:27;;;;;;;2.57;2.20;;;;;;;19.83;100.00;101529.06;5052609;28;20017;-89
2023/08/12 02:45:53;;;;;;;2.25;1.83;;;;;;;19.83;100.00;101533.50;5053110;28;20029;-90
2023/08/12 02:48:18;;;;;;;2.37;2.17;;;;;;;19.86;100.00;101528.13;5056476;28;20111;-89
2023/08/12 02:50:44;;;;;;;1.70;1.60;;;;;;;19.86;100.00;101542.16;5056373;28;20107;-88
2023/08/12 02:53:09;;;;;;;1.60;1.50;;;;;;;19.83;100.00;101529.06;5069746;28;20013;-88
2023/08/12 02:55:35;;;;;;;1.70;1.60;;;;;;;19.84;100.00;101530.78;5064533;28;20028;-88
2023/08/12 02:58:03;;;;;;;1.30;1.30;;;;;;;19.86;100.00;101525.50;5055977;28;20101;-88
2023/08/12 03:00:29;;;;;;;1.60;1.50;;;;;;;19.83;99.63;101520.31;5055108;28;20027;-87
2023/08/12 03:02:54;;;;;;;2.20;2.00;;;;;;;19.84;100.00;101516.78;5056143;28;20021;-87
2023/08/12 03:05:20;;;;;;;2.73;1.80;;;;;;;19.80;100.00;101515.19;5055688;28;20029;-88
2023/08/12 03:07:46;;;;;;;1.83;1.60;;;;;;;19.83;100.00;101521.16;5055911;28;20021;-88
2023/08/12 03:10:12;;;;;;;1.20;1.20;;;;;;;19.80;100.00;101510.78;5055586;28;20044;-88
2023/08/12 03:12:38;;;;;;;;;;;;;;;19.82;100.00;101511.56;5056315;28;20504;-88
2023/08/12 03:15:03;;;;;;;2.10;1.70;;;;;;;19.78;100.00;101504.72;5055437;28;19916;-89
2023/08/12 03:17:28;;;;;;;1.58;1.48;;;;;;;19.75;100.00;101502.22;5055753;28;20040;-89
2023/08/12 03:19:54;;;;;;;1.60;1.50;;;;;;;19.74;100.00;101506.66;5055813;28;20029;-88
2023/08/12 03:22:20;;;;;;;1.50;1.40;;;;;;;19.72;100.00;101505.84;5054959;28;20068;-88
2023/08/12 03:24:45;;;;;;;1.13;1.13;;;;;;;19.72;100.00;101502.34;5055929;28;20052;-87
2023/08/12 03:27:11;;;;;;;1.20;1.20;;;;;;;19.70;100.00;101502.44;5055139;28;20060;-89
2023/08/12 03:29:36;;;;;;;1.63;1.53;;;;;;;19.68;100.00;101492.88;5055726;28;20385;-88
2023/08/12 03:32:02;;;;;;;1.47;1.37;;;;;;;19.63;100.00;101487.81;5055282;28;20028;-88
2023/08/12 03:34:29;;;;;;;1.52;1.42;;;;;;;19.63;100.00;101484.31;5055322;28;20017;-89
2023/08/12 03:36:55;;;;;;;1.90;1.80;;;;;;;19.58;100.00;101481.88;5055386;28;20025;-88
2023/08/12 03:39:20;;;;;;;2.00;1.90;;;;;;;19.59;100.00;101483.59;5055106;28;20052;-89
2023/08/12 03:41:45;;;;;;;1.73;1.60;;;;;;;19.59;100.00;101480.97;5055143;28;20033;-90
2023/08/12 03:44:11;;;;;;;2.20;1.90;;;;;;;19.55;100.00;101477.63;5055091;28;20040;-90
2023/08/12 03:46:36;;;;;;;2.50;2.00;;;;;;;19.53;100.00;101478.63;5055525;28;20029;-89
2023/08/12 03:49:01;;;;;;;2.80;2.27;;;;;;;19.49;100.00;101464.69;5055997;28;20036;-89
2023/08/12 03:51:27;;;;;;;2.13;1.80;;;;;;;19.49;100.00;101477.88;5054710;28;20134;-90
2023/08/12 03:53:52;;;;;;;1.80;1.70;;;;;;;19.48;100.00;101478.78;5055547;28;20584;-89
2023/08/12 03:56:17;;;;;;;2.80;2.37;;;;;;;19.39;100.00;101460.75;5055188;28;20017;-89
2023/08/12 03:58:43;;;;;;;2.50;2.10;;;;;;;19.42;100.00;101471.16;5055433;28;20032;-89
2023/08/12 04:01:08;;;;;;;2.20;2.00;;;;;;;19.41;100.00;101477.34;5055107;28;20108;-89
2023/08/12 04:03:33;;;;;;;2.30;2.10;;;;;;;19.38;100.00;101462.53;5055409;28;20460;-89
2023/08/12 04:05:59;;;;;;;2.30;2.00;;;;;;;19.36;100.00;101460.91;5055390;28;20021;-89
2023/08/12 04:08:25;;;;;;;2.60;2.20;;;;;;;19.37;100.00;101466.09;5054667;28;20040;-90
2023/08/12 04:10:51;;;;;;;1.98;1.85;;;;;;;19.32;100.00;101459.31;5054391;28;20055;-89
2023/08/12 04:13:17;;;;;;;2.03;1.80;;;;;;;19.37;100.00;101465.22;5055351;28;20047;-91
2023/08/12 04:15:43;;;;;;;1.52;1.42;;;;;;;19.33;100.00;101456.59;5055449;28;20162;-89
2023/08/12 04:18:08;;;;;;;1.90;1.80;;;;;;;19.36;100.00;101458.28;5055271;28;20449;-90
2023/08/12 04:20:34;;;;;;;1.60;1.50;;;;;;;19.36;100.00;101455.66;5055076;28;20112;-90
2023/08/12 04:22:59;;;;;;;1.73;1.63;;;;;;;19.35;100.00;101440.78;5055341;28;20054;-90
2023/08/12 04:25:25;;;;;;;1.70;1.60;;;;;;;19.34;100.00;101441.69;5053890;28;20032;-89
2023/08/12 04:27:50;;;;;;;1.63;1.50;;;;;;;19.35;100.00;101443.41;5054801;28;20059;-89
2023/08/12 04:30:16;;;;;;;1.53;1.37;;;;;;;19.32;100.00;101446.16;5054569;28;20528;-89
2023/08/12 04:32:42;;;;;;;1.02;1.02;;;;;;;19.29;100.00;101455.88;5054633;28;20025;-91
2023/08/12 04:35:08;;;;;;;1.30;1.20;;;;;;;19.25;100.00;101440.28;5054860;28;20355;-91
2023/08/12 04:37:35;;;;;;;1.70;1.40;;;;;;;19.24;100.00;101435.94;5054088;28;20049;-89
2023/08/12 04:40:00;;;;;;;1.08;1.08;;;;;;;19.25;100.00;101451.66;5054104;28;20028;-89
2023/08/12 04:42:26;;;;;;;1.27;1.17;;;;;;;19.20;100.00;101444.88;5054479;28;20033;-89
2023/08/12 04:44:51;;;;;;;0.97;0.97;;;;;;;19.18;100.00;101442.31;5054937;28;20477;-90
2023/08/12 04:47:17;;;;;;;1.27;1.20;;;;;;;19.22;100.00;101441.28;5053868;28;20096;-90
2023/08/12 04:49:42;;;;;;;1.17;1.07;;;;;;;19.25;100.00;101433.25;5054409;28;20025;-91
2023/08/12 04:52:08;;;;;;;1.00;1.00;;;;;;;19.25;100.00;101427.97;5054438;28;20029;-92
2023/08/12 04:54:33;;;;;;;1.00;1.00;;;;;;;19.25;100.00;101438.50;5054863;28;20025;-91
2023/08/12 04:56:59;;;;;;;3.17;2.00;;;;;;;19.22;100.00;101437.78;5054396;28;20130;-89
2023/08/12 04:59:25;;;;;;;1.57;1.47;;;;;;;19.18;100.00;101425.69;5053224;28;20025;-87
2023/08/12 05:01:50;;;;;;;3.60;2.45;;;;;;;19.18;100.00;101423.91;5053210;28;20547;-86
2023/08/12 05:04:15;;;;;;;2.57;2.03;;;;;;;19.17;100.00;101429.25;5052734;28;20028;-87
2023/08/12 05:06:41;;;;;;;2.20;2.00;;;;;;;19.12;100.00;101422.41;5052655;28;20120;-85
2023/08/12 05:09:06;;;;;;;2.20;2.00;;;;;;;19.16;100.00;101420.47;5052279;28;20025;-85
2023/08/12 05:11:31;;;;;;;2.53;2.20;;;;;;;19.13;100.00;101423.25;5053127;28;20029;-86
2023/08/12 05:13:57;;;;;;;1.80;1.70;;;;;;;19.12;100.00;101426.81;5052560;28;20033;-87
2023/08/12 05:16:22;;;;;;;2.50;1.90;;;;;;;19.13;100.00;101425.91;5053047;28;20054;-87
2023/08/12 05:18:47;;;;;;;3.17;2.07;;;;;;;19.08;100.00;101409.44;5053539;28;20029;-87
2023/08/12 05:21:12;;;;;;;1.70;1.60;;;;;;;19.12;100.00;101413.66;5052198;28;20428;-86
2023/08/12 05:23:38;;;;;;;1.80;1.70;;;;;;;19.14;100.00;101417.06;5052485;28;20542;-86
2023/08/12 05:26:06;;;;;;;1.50;1.40;;;;;;;19.12;100.00;101405.78;5052396;28;20024;-86
2023/08/12 05:28:31;;;;;;;1.70;1.60;;;;;;;19.12;100.00;101417.13;5052108;28;20116;-86
2023/08/12 05:30:59;;;;;;;1.50;1.40;;;;;;;19.11;100.00;101420.69;5052699;28;20115;-86
2023/08/12 05:33:24;;;;;;;1.38;1.38;;;;;;;19.12;100.00;101396.09;5051943;28;20016;-86
2023/08/12 05:35:50;;;;;;;1.80;1.70;;;;;;;19.11;100.00;101393.53;5052800;28;20075;-86
2023/08/12 05:38:16;;;;;;;1.63;1.53;;;;;;;19.11;100.00;101404.06;5052426;28;20040;-86
2023/08/12 05:40:41;;;;;;;1.80;1.70;;;;;;;19.13;100.00;101404.84;5052597;28;20111;-86
2023/08/12 05:43:07;;;;;;;1.50;1.40;;;;;;;19.11;100.00;101404.06;5052217;28;20274;-86
2023/08/12 05:45:32;;;;;;;1.93;1.30;;;;;;;19.13;100.00;101412.75;5053211;28;20035;-87
2023/08/12 05:47:57;;;;;;;1.23;1.20;;;;;;;19.12;100.00;101396.09;5053223;28;20458;-88
2023/08/12 05:50:23;;;;;;;1.17;1.17;;;;;;;19.11;100.00;101393.53;5052794;28;20020;-89
2023/08/12 05:52:48;;;;;;;3.23;1.50;;;;;;;19.13;100.00;101394.31;5053648;28;20071;-90
2023/08/12 05:55:13;;;;;;;1.70;1.60;;;;;;;19.13;100.00;101395.16;5053115;28;20036;-90
2023/08/12 05:57:39;;;;;;;1.77;1.67;;;;;;;19.12;100.00;101401.34;5053857;28;20369;-90
2023/08/12 06:00:07;;;;;;;2.00;1.70;;;;;;;19.16;100.00;101396.81;5053716;28;20108;-90
2023/08/12 06:02:33;;;;;;;2.10;1.85;;;;;;;19.11;100.00;101391.75;5033069;28;20124;-91
2023/08/12 06:04:58;;;;;;;2.53;2.03;;;;;;;19.08;100.00;101383.97;5033159;28;20113;-91
2023/08/12 06:07:23;;;;;;;1.83;1.73;;;;;;;19.11;100.00;101397.00;5033486;28;20103;-87
2023/08/12 06:09:50;;;;;;;1.70;1.60;;;;;;;19.11;100.00;101389.13;5037464;28;20513;-91
2023/08/12 06:12:16;;;;;;;1.58;1.48;;;;;;;19.09;100.00;101383.06;5052984;28;20028;-89
2023/08/12 06:14:42;;;;;;;1.17;1.17;;;;;;;19.09;100.00;101377.78;5052654;28;20044;-86
2023/08/12 06:17:07;;;;;;;1.47;1.40;;;;;;;19.16;100.00;101388.06;5051503;28;20025;-87
2023/08/12 06:19:33;;;;;;;2.00;1.80;;;;;;;19.14;100.00;101381.09;5053134;28;20030;-90
2023/08/12 06:21:58;;;;;;;1.80;1.70;;;;;;;19.14;100.00;101381.09;5053621;28;20584;-84
2023/08/12 06:24:24;;;;;;;2.30;1.80;;;;;;;19.11;100.00;101378.59;5055458;28;20025;-84
2023/08/12 06:26:49;;;;;;;1.63;1.53;;;;;;;19.13;100.00;101373.28;5055837;28;20025;-83
2023/08/12 06:29:14;;;;;;;1.90;1.80;;;;;;;19.13;100.00;101373.28;5056061;28;20107;-84
2023/08/12 06:31:40;;;;;;;2.07;1.70;;;;;;;19.15;100.00;101366.16;5055456;28;20036;-83
2023/08/12 06:34:05;;;;;;;1.50;1.40;;;;;;;19.14;100.00;101365.31;5055117;28;20381;-85
2023/08/12 06:36:30;;;;;;;1.50;1.40;;;;;;;19.14;100.00;101362.69;5056015;28;20091;-85
2023/08/12 06:38:56;;;;;;;1.90;1.80;;;;;;;19.16;100.00;101359.97;5054896;28;20037;-85
2023/08/12 06:41:21;;;;;;;1.73;1.63;;;;;;;19.17;100.00;101360.84;5055549;28;20036;-85
2023/08/12 06:43:46;;;;;;;2.10;1.80;;;;;;;19.14;100.00;101357.41;5055707;28;20029;-84
2023/08/12 06:46:12;;;;;;;1.80;1.70;;;;;;;19.13;100.00;101352.22;5054935;28;20025;-86
2023/08/12 06:48:37;;;;;;;2.20;1.90;;;;;;;19.17;100.00;101353.78;5055827;28;20206;-86
2023/08/12 06:51:10;;;;;;;2.03;1.90;;;;;;;19.15;100.00;101347.75;5055322;28;20029;-85
2023/08/12 06:53:35;;;;;;;1.90;1.70;;;;;;;19.17;100.00;101343.25;5055080;28;20051;-85
2023/08/12 06:56:00;;;;;;;2.70;2.00;;;;;;;19.24;100.00;101354.38;5055547;28;20064;-85
2023/08/12 06:58:27;;;;;;;1.70;1.60;;;;;;;19.26;100.00;101348.13;5055316;28;20045;-86
2023/08/12 07:00:53;;;;;;;2.07;1.90;;;;;;;19.32;100.00;101348.78;5055038;28;20056;-88
2023/08/12 07:03:18;;;;;;;1.60;1.50;;;;;;;19.33;100.00;101340.81;5055818;28;20025;-88
2023/08/12 07:05:44;;;;;;;1.50;1.40;;;;;;;19.39;100.00;101339.69;5055917;28;20020;-88
2023/08/12 07:08:09;;;;;;;1.27;1.20;;;;;;;19.44;100.00;101337.72;5054953;28;20029;-88
2023/08/12 07:10:38;;;;;;;1.90;1.80;;;;;;;19.45;100.00;101335.00;5055607;28;20029;-90
2023/08/12 07:13:03;;;;;;;1.60;1.50;;;;;;;19.44;100.00;101341.19;5054914;28;20082;-89
2023/08/12 07:15:29;;;;;;;1.60;1.50;;;;;;;19.49;100.00;101345.41;5055757;28;20025;-87
2023/08/12 07:17:54;;;;;;;1.57;1.47;;;;;;;19.51;100.00;101339.13;5055516;28;20025;-87
2023/08/12 07:20:19;;;;;;;1.70;1.60;;;;;;;19.52;100.00;101335.59;5054003;28;20025;-87
2023/08/12 07:22:45;;;;;;;1.53;1.43;;;;;;;19.52;100.00;101334.75;5055035;28;20584;-88
2023/08/12 07:25:10;;;;;;;1.60;1.50;;;;;;;19.52;100.00;101334.75;5055785;28;20108;-93
2023/08/12 07:27:35;;;;;;;1.30;1.30;;;;;;;19.55;100.00;101343.34;5055114;28;20033;-88
2023/08/12 07:30:01;;;;;;;2.10;2.00;;;;;;;19.54;100.00;101338.13;5055379;28;20454;-95
2023/08/12 07:32:26;;;;;;;2.13;1.93;;;;;;;19.50;100.00;101337.44;5055158;28;20167;-85
2023/08/12 07:34:51;;;;;;;1.80;1.70;;;;;;;19.49;100.00;101343.63;5053475;28;20381;-84
2023/08/12 07:37:19;;;;;;;2.00;1.90;;;;;;;19.47;100.00;101328.81;5053984;28;20025;-84
2023/08/12 07:39:44;;;;;;;2.00;1.80;;;;;;;19.50;100.00;101332.16;5055007;28;20041;-85
2023/08/12 07:42:10;;;;;;;1.87;1.77;;;;;;;19.53;100.00;101341.72;5053789;28;20187;-83
2023/08/12 07:44:35;;;;;;;2.03;1.87;;;;;;;19.52;100.00;101338.22;5054504;28;20167;-84
2023/08/12 07:47:01;;;;;;;2.20;2.00;;;;;;;19.52;100.00;101340.84;5054676;28;20401;-81
2023/08/12 07:49:26;;;;;;;2.40;2.20;;;;;;;19.59;100.00;101336.16;5053776;28;20021;-82
2023/08/12 07:51:51;;;;;;;2.00;1.90;;;;;;;19.62;100.00;101335.16;5054496;28;20027;-81
2023/08/12 07:54:17;;;;;;;2.00;1.90;;;;;;;19.64;100.00;101330.69;5054000;28;20021;-81
2023/08/12 07:56:42;;;;;;;1.83;1.73;;;;;;;19.70;100.00;101331.25;5053744;28;20112;-82
2023/08/12 07:59:07;;;;;;;2.40;2.10;;;;;;;19.73;100.00;101339.03;5054088;28;20029;-82
2023/08/12 08:01:33;;;;;;;2.00;1.90;;;;;;;19.77;100.00;101334.47;5054650;28;20146;-81
2023/08/12 08:04:01;;;;;;;2.03;1.90;;;;;;;19.84;100.00;101332.41;5052662;28;20047;-81
2023/08/12 08:06:28;;;;;;;1.80;1.70;;;;;;;19.89;100.00;101340.97;5054093;28;20025;-82
2023/08/12 08:08:55;;;;;;;1.58;1.48;;;;;;;19.93;100.00;101339.06;5054586;28;20024;-81
2023/08/12 08:11:20;;;;;;;1.70;1.60;;;;;;;20.05;100.00;101344.59;5053376;28;20079;-82
2023/08/12 08:13:46;;;;;;;1.60;1.50;;;;;;;20.12;100.00;101347.81;5054566;28;20021;-89
2023/08/12 08:16:11;;;;;;;2.00;1.90;;;;;;;20.17;100.00;101348.41;5055856;28;20469;-94
2023/08/12 08:18:36;;;;;;;2.00;1.80;;;;;;;20.19;100.00;101346.56;5055076;28;20054;-90
2023/08/12 08:21:02;;;;;;;1.70;1.60;;;;;;;20.20;100.00;101363.25;5054931;28;20052;-89
2023/08/12 08:23:27;;;;;;;1.37;1.37;;;;;;;20.19;100.00;101367.66;5054668;28;20021;-89
2023/08/12 08:25:52;;;;;;;1.60;1.50;;;;;;;20.19;100.00;101359.75;5054153;28;20025;-83
2023/08/12 08:28:18;;;;;;;1.70;1.60;;;;;;;20.14;100.00;101360.91;5053353;28;20501;-84
2023/08/12 08:30:43;;;;;;;1.30;1.30;;;;;;;20.09;100.00;101347.09;5052484;28;20021;-83
2023/08/12 08:33:08;;;;;;;1.50;1.40;;;;;;;20.23;100.00;101364.88;5052960;28;20025;-83
2023/08/12 08:35:34;;;;;;;1.20;1.20;;;;;;;20.24;100.00;101363.97;5052547;28;20025;-83
2023/08/12 08:37:59;;;;;;;1.43;1.43;;;;;;;20.30;100.00;101372.44;5053204;28;20047;-85
2023/08/12 08:40:26;;;;;;;1.30;1.30;;;;;;;20.33;100.00;101372.25;5054614;28;20410;-92
2023/08/12 08:42:53;;;;;;;1.70;1.60;;;;;;;20.37;100.00;101368.56;5055508;28;20481;-94
2023/08/12 08:45:21;;;;;;;2.00;1.90;;;;;;;20.48;100.00;101378.59;5053716;28;20082;-93
2023/08/12 08:47:47;;;;;;;1.58;1.50;;;;;;;20.51;100.00;101380.22;5055197;28;20028;-93
2023/08/12 08:50:13;;;;;;;1.42;1.42;;;;;;;20.46;100.00;101385.72;5055703;28;20040;-91
2023/08/12 08:52:39;;;;;;;2.10;2.00;;;;;;;20.44;100.00;101384.06;5054698;28;20041;-92
2023/08/12 08:55:05;;;;;;;2.33;2.22;;;;;;;20.40;100.00;101386.00;5056259;28;20024;-92
2023/08/12 08:57:32;;;;;;;2.30;2.20;;;;;;;20.35;100.00;101370.41;5054012;28;20504;-90
2023/08/12 08:59:57;;;;;;;;;;;;;;;20.52;100.00;101381.94;5055254;28;20021;-90
2023/08/12 09:02:23;;;;;;;;;;;;;;;20.64;100.00;101388.38;5054545;28;20428;-90
2023/08/12 09:04:49;;;;;;;2.27;2.10;;;;;;;20.76;100.00;101374.63;5054569;28;19912;-91
2023/08/12 09:07:14;;;;;;;2.15;2.05;;;;;;;20.95;100.00;101387.75;5053204;28;20021;-91
2023/08/12 09:09:45;;;;;;;2.00;1.90;;;;;;;21.07;100.00;101380.97;5053824;28;20032;-92
2023/08/12 09:12:13;;;;;;;2.17;2.08;;;;;;;21.17;100.00;101385.81;5053974;28;20044;-93
2023/08/12 09:14:38;;;;;;;2.05;1.95;;;;;;;21.10;100.00;101385.25;5053543;28;20104;-92
2023/08/12 09:17:07;;;;;;;1.83;1.73;;;;;;;21.01;100.00;101404.16;5053871;28;20504;-93
2023/08/12 09:19:35;;;;;;;2.20;2.10;;;;;;;20.86;100.00;101397.88;5053507;28;20532;-93
2023/08/12 09:22:03;;;;;;;1.80;1.70;;;;;;;20.81;100.00;101401.63;5054093;28;20488;-93
2023/08/12 09:24:29;;;;;;;1.80;1.70;;;;;;;20.80;100.00;101415.75;5055093;28;20037;-93
2023/08/12 09:26:57;;;;;;;1.52;1.52;;;;;;;20.83;100.00;101428.75;5054030;28;20025;-93
2023/08/12 09:29:26;;;;;;;1.30;1.30;;;;;;;20.88;100.00;101432.97;5054015;28;20112;-94
2023/08/12 09:31:52;;;;;;;1.27;1.27;;;;;;;20.88;100.00;101425.06;5053716;28;20420;-94
2023/08/12 09:34:17;;;;;;;1.10;1.10;;;;;;;20.91;100.00;101427.53;5052848;28;20031;-94
2023/08/12 09:36:43;;;;;;;1.80;1.70;;;;;;;20.85;100.00;101423.44;5054184;28;20043;-96
2023/08/12 09:39:13;;;;;;;1.52;1.42;;;;;;;20.82;100.00;101416.53;5044961;28;20704;-96
2023/08/12 09:41:41;;;;;;;1.58;1.48;;;;;;;20.77;100.00;101417.69;5053323;28;20025;-96
2023/08/12 09:44:08;;;;;;;1.23;1.15;;;;;;;20.74;100.00;101420.44;5053613;28;20117;-96
2023/08/12 09:46:43;;;;;;;1.02;1.02;;;;;;;20.65;100.00;101416.44;5053873;28;20025;-96
2023/08/12 09:49:08;;;;;;;0.93;0.93;;;;;;;20.61;100.00;101426.31;5054100;28;20023;-95
2023/08/12 09:51:36;;;;;;;1.10;1.10;;;;;;;20.46;100.00;101416.47;5054974;28;20458;-95
2023/08/12 09:54:02;;;;;;;1.27;1.25;;;;;;;20.45;100.00;101436.72;5053981;28;20029;-96
2023/08/12 09:56:44;;;;;;;0.95;0.95;;;;;;;20.44;100.00;101434.16;5056020;28;20425;-95
2023/08/12 09:59:12;;;;;;;1.05;1.05;;;;;;;20.40;100.00;101419.44;5057785;28;20029;-95
2023/08/12 10:01:38;;;;;;;1.00;1.00;;;;;;;20.49;100.00;101437.44;5057519;28;20112;-94
2023/08/12 10:04:08;;;;;;;0.80;0.80;;;;;;;20.46;100.00;101438.44;5056634;28;20060;-94
2023/08/12 10:06:34;;;;;;;1.38;1.33;;;;;;;20.48;100.00;101436.59;5054545;28;20028;-95
2023/08/12 10:09:00;;;;;;;1.10;1.10;;;;;;;20.51;100.00;101446.97;5058223;28;20094;-94
2023/08/12 10:11:26;;;;;;;0.95;0.95;;;;;;;20.58;100.00;101447.53;5058120;28;20044;-95
2023/08/12 10:13:51;;;;;;;1.07;1.07;;;;;;;20.60;100.00;101442.22;5057550;28;20025;-95
2023/08/12 10:16:17;;;;;;;1.00;1.00;;;;;;;20.65;100.00;101451.59;5076438;28;20036;-93
2023/08/12 10:19:00;;;;;;;0.80;0.80;;;;;;;20.67;100.00;101446.25;5057741;28;20051;-94
2023/08/12 10:21:26;;;;;;;1.27;0.93;;;;;;;20.75;100.00;101456.47;5056238;28;20302;-93
2023/08/12 10:23:53;;;;;;;1.08;0.98;;;;;;;20.92;100.00;101450.38;5056622;28;20025;-93
2023/08/12 10:26:33;;;;;;;1.50;0.80;;;;;;;21.12;100.00;101454.63;5056254;28;20052;-93
2023/08/12 10:29:02;;;;;;;2.50;1.00;;;;;;;21.40;100.00;101459.34;5056240;28;20025;-95
2023/08/12 10:31:28;;;;;;;0.70;0.70;;;;;;;21.59;100.00;101451.38;5057754;28;20017;-94
2023/08/12 10:34:00;;;;;;;1.42;1.00;;;;;;;21.67;100.00;101439.56;5058802;28;20039;-95
2023/08/12 10:36:26;;;;;;;0.70;0.70;;;;;;;21.84;100.00;101441.31;5057611;28;20104;-93
2023/08/12 10:39:01;;;;;;;;;;;;;;;22.02;100.00;101431.53;5054855;28;20037;-93
2023/08/12 10:41:36;;;;;;;0.60;0.60;;;;;;;22.11;100.00;101419.59;5056888;28;19921;-93
2023/08/12 10:44:05;;;;;;;0.70;0.70;;;;;;;22.31;97.38;101432.56;5056845;28;20299;-94
2023/08/12 10:46:32;;;;;;;0.60;0.60;;;;;;;22.43;98.61;101446.06;5058047;28;20028;-93
2023/08/12 10:49:14;;;;;;;0.85;0.85;;;;;;;22.48;95.98;101447.53;5057310;28;20472;-95
2023/08/12 10:51:51;;;;;;;0.65;0.65;;;;;;;22.51;97.55;101446.50;5050555;28;20090;-94
2023/08/12 10:54:21;;;;;;;0.63;0.60;;;;;;;22.55;95.91;101447.19;5057669;28;20085;-95
2023/08/12 10:57:01;;;;;;;1.48;0.90;;;;;;;22.56;95.01;101455.03;5057564;28;20035;-95
2023/08/12 10:59:53;;;;;;;1.15;0.77;;;;;;;22.60;95.27;101439.84;5058604;28;20032;-92
2023/08/12 11:02:19;;;;;;;0.80;0.70;;;;;;;22.80;95.69;101454.56;5057966;28;20064;-94
2023/08/12 11:04:48;;;;;;;0.88;0.73;;;;;;;22.92;93.04;101450.34;5057716;28;20025;-96
2023/08/12 11:07:18;;;;;;;0.57;0.57;;;;;;;22.98;93.61;101455.31;5056966;28;20052;-95
2023/08/12 11:09:45;;;;;;;0.65;0.60;;;;;;;23.05;91.35;101459.28;5058046;28;20029;-94
2023/08/12 11:12:11;;;;;;;1.48;0.70;;;;;;;23.05;89.28;101459.28;5057457;28;20024;-94
2023/08/12 11:14:53;;;;;;;0.83;0.83;;;;;;;23.04;91.11;101468.16;5077571;28;20013;-93
2023/08/12 11:17:18;;;;;;;1.85;0.80;;;;;;;23.09;88.17;101465.25;5057745;28;20021;-93
2023/08/12 11:19:44;;;;;;;0.77;0.70;;;;;;;23.09;86.05;101466.13;5057821;28;20337;-92
2023/08/12 11:22:12;;;;;;;1.17;0.80;;;;;;;23.09;87.19;101452.03;5058306;28;20053;-89
2023/08/12 11:24:41;;;;;;;1.70;0.90;;;;;;;23.14;82.14;101466.69;5059443;28;20017;-95